sensor_id;sensor_type;location;lat;lon;timestamp;P1;durP1;ratioP1;P2;durP2;ratioP2
28003;SDS011;15330;51.234;6.754;2023-11-19T00:00:06;13.13;;;7.78;;
28003;SDS011;15330;51.234;6.754;2023-11-19T00:02:36;10.20;;;7.05;;
28003;SDS011;15330;51.234;6.754;2023-11-19T00:05:03;7.55;;;6.25;;
28003;SDS011;15330;51.234;6.754;2023-11-19T00:07:28;7.75;;;5.95;;
28003;SDS011;15330;51.234;6.754;2023-11-19T00:09:54;7.97;;;4.97;;
28003;SDS011;15330;51.234;6.754;2023-11-19T00:12:20;5.75;;;4.05;;
28003;SDS011;15330;51.234;6.754;2023-11-19T00:14:45;5.32;;;3.45;;
28003;SDS011;15330;51.234;6.754;2023-11-19T00:17:11;4.05;;;3.30;;
28003;SDS011;15330;51.234;6.754;2023-11-19T00:19:36;5.25;;;3.35;;
28003;SDS011;15330;51.234;6.754;2023-11-19T00:22:02;6.75;;;3.42;;
28003;SDS011;15330;51.234;6.754;2023-11-19T00:24:27;7.88;;;3.25;;
28003;SDS011;15330;51.234;6.754;2023-11-19T00:26:53;6.85;;;3.95;;
28003;SDS011;15330;51.234;6.754;2023-11-19T00:29:18;3.65;;;3.33;;
28003;SDS011;15330;51.234;6.754;2023-11-19T00:31:45;3.90;;;3.15;;
28003;SDS011;15330;51.234;6.754;2023-11-19T00:34:10;5.22;;;3.65;;
28003;SDS011;15330;51.234;6.754;2023-11-19T00:36:36;5.15;;;3.85;;
28003;SDS011;15330;51.234;6.754;2023-11-19T00:39:01;4.88;;;3.03;;
28003;SDS011;15330;51.234;6.754;2023-11-19T00:41:26;3.40;;;3.08;;
28003;SDS011;15330;51.234;6.754;2023-11-19T00:43:52;4.63;;;3.30;;
28003;SDS011;15330;51.234;6.754;2023-11-19T00:46:17;5.82;;;2.88;;
28003;SDS011;15330;51.234;6.754;2023-11-19T00:48:43;4.82;;;3.30;;
28003;SDS011;15330;51.234;6.754;2023-11-19T00:51:08;5.80;;;2.60;;
28003;SDS011;15330;51.234;6.754;2023-11-19T00:53:33;4.00;;;2.90;;
28003;SDS011;15330;51.234;6.754;2023-11-19T00:55:59;5.63;;;2.80;;
28003;SDS011;15330;51.234;6.754;2023-11-19T00:58:25;4.45;;;3.00;;
28003;SDS011;15330;51.234;6.754;2023-11-19T01:00:50;7.15;;;3.35;;
28003;SDS011;15330;51.234;6.754;2023-11-19T01:03:15;4.43;;;2.80;;
28003;SDS011;15330;51.234;6.754;2023-11-19T01:05:41;5.05;;;2.75;;
28003;SDS011;15330;51.234;6.754;2023-11-19T01:08:06;6.63;;;3.00;;
28003;SDS011;15330;51.234;6.754;2023-11-19T01:10:32;5.68;;;2.63;;
28003;SDS011;15330;51.234;6.754;2023-11-19T01:12:57;3.03;;;2.33;;
28003;SDS011;15330;51.234;6.754;2023-11-19T01:15:22;3.58;;;2.00;;
28003;SDS011;15330;51.234;6.754;2023-11-19T01:17:48;2.22;;;2.00;;
28003;SDS011;15330;51.234;6.754;2023-11-19T01:20:14;2.00;;;1.80;;
28003;SDS011;15330;51.234;6.754;2023-11-19T01:22:39;7.55;;;2.05;;
28003;SDS011;15330;51.234;6.754;2023-11-19T01:25:05;1.70;;;1.60;;
28003;SDS011;15330;51.234;6.754;2023-11-19T01:27:31;1.95;;;1.55;;
28003;SDS011;15330;51.234;6.754;2023-11-19T01:29:56;2.47;;;1.77;;
28003;SDS011;15330;51.234;6.754;2023-11-19T01:32:22;2.88;;;1.90;;
28003;SDS011;15330;51.234;6.754;2023-11-19T01:34:49;2.88;;;1.55;;
28003;SDS011;15330;51.234;6.754;2023-11-19T01:37:14;3.83;;;1.58;;
28003;SDS011;15330;51.234;6.754;2023-11-19T01:39:40;2.45;;;1.50;;
28003;SDS011;15330;51.234;6.754;2023-11-19T01:42:08;5.40;;;1.55;;
28003;SDS011;15330;51.234;6.754;2023-11-19T01:44:33;3.47;;;1.40;;
28003;SDS011;15330;51.234;6.754;2023-11-19T01:46:59;2.92;;;1.30;;
28003;SDS011;15330;51.234;6.754;2023-11-19T01:49:25;3.10;;;1.45;;
28003;SDS011;15330;51.234;6.754;2023-11-19T01:51:51;2.40;;;1.50;;
28003;SDS011;15330;51.234;6.754;2023-11-19T01:54:16;5.47;;;1.70;;
28003;SDS011;15330;51.234;6.754;2023-11-19T01:56:41;4.63;;;1.70;;
28003;SDS011;15330;51.234;6.754;2023-11-19T01:59:07;2.78;;;1.90;;
28003;SDS011;15330;51.234;6.754;2023-11-19T02:01:34;6.90;;;1.88;;
28003;SDS011;15330;51.234;6.754;2023-11-19T02:04:04;6.25;;;2.05;;
28003;SDS011;15330;51.234;6.754;2023-11-19T02:06:31;7.43;;;2.17;;
28003;SDS011;15330;51.234;6.754;2023-11-19T02:08:58;8.23;;;2.03;;
28003;SDS011;15330;51.234;6.754;2023-11-19T02:11:23;3.63;;;2.30;;
28003;SDS011;15330;51.234;6.754;2023-11-19T02:13:54;6.20;;;2.42;;
28003;SDS011;15330;51.234;6.754;2023-11-19T02:16:19;6.68;;;2.40;;
28003;SDS011;15330;51.234;6.754;2023-11-19T02:18:44;7.38;;;2.97;;
28003;SDS011;15330;51.234;6.754;2023-11-19T02:21:10;6.97;;;3.03;;
28003;SDS011;15330;51.234;6.754;2023-11-19T02:23:35;6.80;;;2.70;;
28003;SDS011;15330;51.234;6.754;2023-11-19T02:28:56;7.93;;;3.05;;
28003;SDS011;15330;51.234;6.754;2023-11-19T02:31:21;11.13;;;3.28;;
28003;SDS011;15330;51.234;6.754;2023-11-19T02:33:48;8.00;;;3.30;;
28003;SDS011;15330;51.234;6.754;2023-11-19T02:36:15;6.45;;;3.42;;
28003;SDS011;15330;51.234;6.754;2023-11-19T02:38:41;9.07;;;4.15;;
28003;SDS011;15330;51.234;6.754;2023-11-19T02:41:07;13.82;;;4.60;;
28003;SDS011;15330;51.234;6.754;2023-11-19T02:43:32;12.52;;;4.10;;
28003;SDS011;15330;51.234;6.754;2023-11-19T02:46:00;9.48;;;3.75;;
28003;SDS011;15330;51.234;6.754;2023-11-19T02:48:32;12.10;;;4.18;;
28003;SDS011;15330;51.234;6.754;2023-11-19T02:50:58;15.60;;;4.05;;
28003;SDS011;15330;51.234;6.754;2023-11-19T02:53:23;9.57;;;3.90;;
28003;SDS011;15330;51.234;6.754;2023-11-19T02:55:50;12.63;;;4.05;;
28003;SDS011;15330;51.234;6.754;2023-11-19T02:58:15;17.20;;;4.85;;
28003;SDS011;15330;51.234;6.754;2023-11-19T03:00:52;8.60;;;4.00;;
28003;SDS011;15330;51.234;6.754;2023-11-19T03:03:26;17.00;;;4.90;;
28003;SDS011;15330;51.234;6.754;2023-11-19T03:05:56;12.82;;;4.15;;
28003;SDS011;15330;51.234;6.754;2023-11-19T03:08:22;12.77;;;4.18;;
28003;SDS011;15330;51.234;6.754;2023-11-19T03:10:47;10.95;;;4.25;;
28003;SDS011;15330;51.234;6.754;2023-11-19T03:13:13;23.08;;;4.70;;
28003;SDS011;15330;51.234;6.754;2023-11-19T03:15:39;17.58;;;4.63;;
28003;SDS011;15330;51.234;6.754;2023-11-19T03:18:05;12.15;;;4.00;;
28003;SDS011;15330;51.234;6.754;2023-11-19T03:20:30;21.10;;;4.50;;
28003;SDS011;15330;51.234;6.754;2023-11-19T03:22:56;19.38;;;4.40;;
28003;SDS011;15330;51.234;6.754;2023-11-19T03:25:24;16.83;;;3.83;;
28003;SDS011;15330;51.234;6.754;2023-11-19T03:27:52;13.98;;;4.13;;
28003;SDS011;15330;51.234;6.754;2023-11-19T03:30:18;24.48;;;4.30;;
28003;SDS011;15330;51.234;6.754;2023-11-19T03:32:44;15.73;;;4.28;;
28003;SDS011;15330;51.234;6.754;2023-11-19T03:35:09;23.42;;;4.82;;
28003;SDS011;15330;51.234;6.754;2023-11-19T03:37:36;13.43;;;4.47;;
28003;SDS011;15330;51.234;6.754;2023-11-19T03:40:02;17.30;;;4.50;;
28003;SDS011;15330;51.234;6.754;2023-11-19T03:42:28;18.63;;;4.72;;
28003;SDS011;15330;51.234;6.754;2023-11-19T03:44:55;19.85;;;4.57;;
28003;SDS011;15330;51.234;6.754;2023-11-19T03:47:20;23.08;;;4.78;;
28003;SDS011;15330;51.234;6.754;2023-11-19T03:49:49;14.75;;;4.63;;
28003;SDS011;15330;51.234;6.754;2023-11-19T03:52:15;17.52;;;3.83;;
28003;SDS011;15330;51.234;6.754;2023-11-19T03:54:41;30.30;;;4.25;;
28003;SDS011;15330;51.234;6.754;2023-11-19T03:57:06;33.80;;;5.15;;
28003;SDS011;15330;51.234;6.754;2023-11-19T03:59:32;22.90;;;5.35;;
28003;SDS011;15330;51.234;6.754;2023-11-19T04:01:58;24.33;;;4.35;;
28003;SDS011;15330;51.234;6.754;2023-11-19T04:04:25;24.58;;;4.95;;
28003;SDS011;15330;51.234;6.754;2023-11-19T04:06:51;19.02;;;4.43;;
28003;SDS011;15330;51.234;6.754;2023-11-19T04:09:16;17.88;;;4.07;;
28003;SDS011;15330;51.234;6.754;2023-11-19T04:11:41;20.67;;;4.22;;
28003;SDS011;15330;51.234;6.754;2023-11-19T04:14:07;22.30;;;4.15;;
28003;SDS011;15330;51.234;6.754;2023-11-19T04:16:32;24.60;;;4.53;;
28003;SDS011;15330;51.234;6.754;2023-11-19T04:18:57;23.00;;;4.97;;
28003;SDS011;15330;51.234;6.754;2023-11-19T04:21:23;32.22;;;5.10;;
28003;SDS011;15330;51.234;6.754;2023-11-19T04:23:48;30.52;;;5.20;;
28003;SDS011;15330;51.234;6.754;2023-11-19T04:26:14;23.50;;;4.43;;
28003;SDS011;15330;51.234;6.754;2023-11-19T04:28:40;22.77;;;4.35;;
28003;SDS011;15330;51.234;6.754;2023-11-19T04:31:06;24.65;;;3.97;;
28003;SDS011;15330;51.234;6.754;2023-11-19T04:33:31;20.92;;;4.75;;
28003;SDS011;15330;51.234;6.754;2023-11-19T04:35:56;27.98;;;4.75;;
28003;SDS011;15330;51.234;6.754;2023-11-19T04:38:22;22.20;;;4.40;;
28003;SDS011;15330;51.234;6.754;2023-11-19T04:40:47;26.83;;;5.30;;
28003;SDS011;15330;51.234;6.754;2023-11-19T04:43:12;25.25;;;4.95;;
28003;SDS011;15330;51.234;6.754;2023-11-19T04:45:38;17.55;;;4.05;;
28003;SDS011;15330;51.234;6.754;2023-11-19T04:48:04;27.50;;;4.38;;
28003;SDS011;15330;51.234;6.754;2023-11-19T04:50:30;20.83;;;4.18;;
28003;SDS011;15330;51.234;6.754;2023-11-19T04:52:55;24.90;;;4.50;;
28003;SDS011;15330;51.234;6.754;2023-11-19T04:55:42;22.02;;;4.95;;
28003;SDS011;15330;51.234;6.754;2023-11-19T04:58:07;26.77;;;5.45;;
28003;SDS011;15330;51.234;6.754;2023-11-19T05:00:33;21.30;;;5.32;;
28003;SDS011;15330;51.234;6.754;2023-11-19T05:02:58;27.45;;;5.75;;
28003;SDS011;15330;51.234;6.754;2023-11-19T05:05:23;23.45;;;4.32;;
28003;SDS011;15330;51.234;6.754;2023-11-19T05:07:49;22.20;;;4.25;;
28003;SDS011;15330;51.234;6.754;2023-11-19T05:10:14;26.83;;;5.22;;
28003;SDS011;15330;51.234;6.754;2023-11-19T05:12:39;27.83;;;5.13;;
28003;SDS011;15330;51.234;6.754;2023-11-19T05:15:06;30.27;;;6.13;;
28003;SDS011;15330;51.234;6.754;2023-11-19T05:17:32;32.53;;;5.43;;
28003;SDS011;15330;51.234;6.754;2023-11-19T05:19:57;30.23;;;4.40;;
28003;SDS011;15330;51.234;6.754;2023-11-19T05:22:22;26.95;;;4.80;;
28003;SDS011;15330;51.234;6.754;2023-11-19T05:24:48;24.83;;;4.97;;
28003;SDS011;15330;51.234;6.754;2023-11-19T05:27:14;27.52;;;4.80;;
28003;SDS011;15330;51.234;6.754;2023-11-19T05:29:39;23.67;;;4.53;;
28003;SDS011;15330;51.234;6.754;2023-11-19T05:32:06;31.63;;;5.43;;
28003;SDS011;15330;51.234;6.754;2023-11-19T05:34:32;31.30;;;4.93;;
28003;SDS011;15330;51.234;6.754;2023-11-19T05:36:57;30.90;;;5.18;;
28003;SDS011;15330;51.234;6.754;2023-11-19T05:39:22;33.72;;;4.45;;
28003;SDS011;15330;51.234;6.754;2023-11-19T05:41:49;24.60;;;4.97;;
28003;SDS011;15330;51.234;6.754;2023-11-19T05:44:14;23.20;;;5.13;;
28003;SDS011;15330;51.234;6.754;2023-11-19T05:46:40;30.92;;;5.10;;
28003;SDS011;15330;51.234;6.754;2023-11-19T05:49:07;23.02;;;4.30;;
28003;SDS011;15330;51.234;6.754;2023-11-19T05:51:35;24.55;;;4.88;;
28003;SDS011;15330;51.234;6.754;2023-11-19T05:54:02;30.33;;;5.07;;
28003;SDS011;15330;51.234;6.754;2023-11-19T05:56:27;25.60;;;4.97;;
28003;SDS011;15330;51.234;6.754;2023-11-19T05:58:57;31.00;;;4.85;;
28003;SDS011;15330;51.234;6.754;2023-11-19T06:01:22;29.58;;;5.72;;
28003;SDS011;15330;51.234;6.754;2023-11-19T06:03:48;33.88;;;5.05;;
28003;SDS011;15330;51.234;6.754;2023-11-19T06:06:15;32.47;;;4.70;;
28003;SDS011;15330;51.234;6.754;2023-11-19T06:08:40;31.20;;;5.13;;
28003;SDS011;15330;51.234;6.754;2023-11-19T06:11:05;32.60;;;5.50;;
28003;SDS011;15330;51.234;6.754;2023-11-19T06:13:31;21.95;;;5.35;;
28003;SDS011;15330;51.234;6.754;2023-11-19T06:15:56;25.63;;;5.22;;
28003;SDS011;15330;51.234;6.754;2023-11-19T06:18:21;29.95;;;5.25;;
28003;SDS011;15330;51.234;6.754;2023-11-19T06:20:48;30.05;;;5.25;;
28003;SDS011;15330;51.234;6.754;2023-11-19T06:23:14;29.92;;;6.20;;
28003;SDS011;15330;51.234;6.754;2023-11-19T06:25:40;28.40;;;4.93;;
28003;SDS011;15330;51.234;6.754;2023-11-19T06:28:05;31.60;;;5.50;;
28003;SDS011;15330;51.234;6.754;2023-11-19T06:30:30;20.10;;;3.95;;
28003;SDS011;15330;51.234;6.754;2023-11-19T06:32:57;36.17;;;5.47;;
28003;SDS011;15330;51.234;6.754;2023-11-19T06:35:23;22.75;;;5.13;;
28003;SDS011;15330;51.234;6.754;2023-11-19T06:37:48;35.65;;;5.38;;
28003;SDS011;15330;51.234;6.754;2023-11-19T06:40:14;31.75;;;5.03;;
28003;SDS011;15330;51.234;6.754;2023-11-19T06:42:40;27.33;;;4.65;;
28003;SDS011;15330;51.234;6.754;2023-11-19T06:45:06;34.70;;;5.95;;
28003;SDS011;15330;51.234;6.754;2023-11-19T06:47:32;36.03;;;6.57;;
28003;SDS011;15330;51.234;6.754;2023-11-19T06:49:57;25.92;;;5.60;;
28003;SDS011;15330;51.234;6.754;2023-11-19T06:52:23;26.60;;;4.35;;
28003;SDS011;15330;51.234;6.754;2023-11-19T06:54:49;33.80;;;5.45;;
28003;SDS011;15330;51.234;6.754;2023-11-19T06:57:14;49.75;;;7.43;;
28003;SDS011;15330;51.234;6.754;2023-11-19T06:59:40;28.80;;;6.03;;
28003;SDS011;15330;51.234;6.754;2023-11-19T07:02:05;30.05;;;6.00;;
28003;SDS011;15330;51.234;6.754;2023-11-19T07:04:31;25.83;;;3.80;;
28003;SDS011;15330;51.234;6.754;2023-11-19T07:06:58;34.20;;;5.10;;
28003;SDS011;15330;51.234;6.754;2023-11-19T07:09:24;34.75;;;5.00;;
28003;SDS011;15330;51.234;6.754;2023-11-19T07:11:50;28.38;;;4.85;;
28003;SDS011;15330;51.234;6.754;2023-11-19T07:14:18;23.88;;;5.05;;
28003;SDS011;15330;51.234;6.754;2023-11-19T07:16:44;25.40;;;5.03;;
28003;SDS011;15330;51.234;6.754;2023-11-19T07:19:11;29.75;;;6.25;;
28003;SDS011;15330;51.234;6.754;2023-11-19T07:21:37;35.83;;;5.82;;
28003;SDS011;15330;51.234;6.754;2023-11-19T07:24:09;28.85;;;4.93;;
28003;SDS011;15330;51.234;6.754;2023-11-19T07:26:35;36.13;;;5.38;;
28003;SDS011;15330;51.234;6.754;2023-11-19T07:29:02;27.75;;;4.47;;
28003;SDS011;15330;51.234;6.754;2023-11-19T07:31:28;35.88;;;5.15;;
28003;SDS011;15330;51.234;6.754;2023-11-19T07:33:53;38.47;;;6.22;;
28003;SDS011;15330;51.234;6.754;2023-11-19T07:36:19;32.58;;;5.65;;
28003;SDS011;15330;51.234;6.754;2023-11-19T07:38:45;32.70;;;4.90;;
28003;SDS011;15330;51.234;6.754;2023-11-19T07:41:10;34.10;;;4.95;;
28003;SDS011;15330;51.234;6.754;2023-11-19T07:43:38;33.83;;;5.10;;
28003;SDS011;15330;51.234;6.754;2023-11-19T07:46:04;27.85;;;5.50;;
28003;SDS011;15330;51.234;6.754;2023-11-19T07:48:32;33.58;;;4.70;;
28003;SDS011;15330;51.234;6.754;2023-11-19T07:50:58;33.00;;;6.50;;
28003;SDS011;15330;51.234;6.754;2023-11-19T07:53:23;35.85;;;6.35;;
28003;SDS011;15330;51.234;6.754;2023-11-19T07:55:48;36.05;;;6.07;;
28003;SDS011;15330;51.234;6.754;2023-11-19T07:58:14;33.30;;;6.78;;
28003;SDS011;15330;51.234;6.754;2023-11-19T08:00:39;28.25;;;5.05;;
28003;SDS011;15330;51.234;6.754;2023-11-19T08:03:05;23.42;;;5.20;;
28003;SDS011;15330;51.234;6.754;2023-11-19T08:05:31;31.25;;;5.53;;
28003;SDS011;15330;51.234;6.754;2023-11-19T08:07:56;29.92;;;5.45;;
28003;SDS011;15330;51.234;6.754;2023-11-19T08:10:22;31.75;;;4.78;;
28003;SDS011;15330;51.234;6.754;2023-11-19T08:12:47;25.77;;;5.90;;
28003;SDS011;15330;51.234;6.754;2023-11-19T08:15:13;29.65;;;5.13;;
28003;SDS011;15330;51.234;6.754;2023-11-19T08:17:38;29.90;;;5.68;;
28003;SDS011;15330;51.234;6.754;2023-11-19T08:20:04;28.73;;;5.32;;
28003;SDS011;15330;51.234;6.754;2023-11-19T08:22:35;30.90;;;5.57;;
28003;SDS011;15330;51.234;6.754;2023-11-19T08:25:01;23.40;;;5.35;;
28003;SDS011;15330;51.234;6.754;2023-11-19T08:27:26;29.83;;;5.60;;
28003;SDS011;15330;51.234;6.754;2023-11-19T08:29:54;34.13;;;5.63;;
28003;SDS011;15330;51.234;6.754;2023-11-19T08:32:22;29.27;;;5.70;;
28003;SDS011;15330;51.234;6.754;2023-11-19T08:34:48;36.40;;;5.30;;
28003;SDS011;15330;51.234;6.754;2023-11-19T08:37:13;31.75;;;5.18;;
28003;SDS011;15330;51.234;6.754;2023-11-19T08:39:39;22.30;;;4.90;;
28003;SDS011;15330;51.234;6.754;2023-11-19T08:42:05;35.30;;;5.68;;
28003;SDS011;15330;51.234;6.754;2023-11-19T08:44:30;27.85;;;5.43;;
28003;SDS011;15330;51.234;6.754;2023-11-19T08:46:56;29.52;;;5.05;;
28003;SDS011;15330;51.234;6.754;2023-11-19T08:49:21;27.13;;;5.30;;
28003;SDS011;15330;51.234;6.754;2023-11-19T08:51:47;28.05;;;4.70;;
28003;SDS011;15330;51.234;6.754;2023-11-19T08:54:12;29.00;;;5.60;;
28003;SDS011;15330;51.234;6.754;2023-11-19T08:56:38;28.45;;;5.63;;
28003;SDS011;15330;51.234;6.754;2023-11-19T08:59:04;28.55;;;5.57;;
28003;SDS011;15330;51.234;6.754;2023-11-19T09:01:30;27.70;;;5.30;;
28003;SDS011;15330;51.234;6.754;2023-11-19T09:03:55;31.77;;;5.80;;
28003;SDS011;15330;51.234;6.754;2023-11-19T09:06:20;29.92;;;5.60;;
28003;SDS011;15330;51.234;6.754;2023-11-19T09:08:46;26.63;;;5.30;;
28003;SDS011;15330;51.234;6.754;2023-11-19T09:11:11;25.88;;;6.28;;
28003;SDS011;15330;51.234;6.754;2023-11-19T09:13:36;36.17;;;5.80;;
28003;SDS011;15330;51.234;6.754;2023-11-19T09:16:02;27.80;;;5.50;;
28003;SDS011;15330;51.234;6.754;2023-11-19T09:18:28;28.13;;;5.28;;
28003;SDS011;15330;51.234;6.754;2023-11-19T09:20:54;25.55;;;4.97;;
28003;SDS011;15330;51.234;6.754;2023-11-19T09:23:19;26.25;;;5.28;;
28003;SDS011;15330;51.234;6.754;2023-11-19T09:25:45;23.55;;;5.15;;
28003;SDS011;15330;51.234;6.754;2023-11-19T09:28:10;31.38;;;6.05;;
28003;SDS011;15330;51.234;6.754;2023-11-19T09:30:35;30.15;;;5.43;;
28003;SDS011;15330;51.234;6.754;2023-11-19T09:33:01;33.78;;;6.38;;
28003;SDS011;15330;51.234;6.754;2023-11-19T09:35:26;25.30;;;4.68;;
28003;SDS011;15330;51.234;6.754;2023-11-19T09:37:52;35.72;;;5.55;;
28003;SDS011;15330;51.234;6.754;2023-11-19T09:40:17;31.95;;;6.20;;
28003;SDS011;15330;51.234;6.754;2023-11-19T09:42:43;26.08;;;5.10;;
28003;SDS011;15330;51.234;6.754;2023-11-19T09:45:13;25.58;;;5.35;;
28003;SDS011;15330;51.234;6.754;2023-11-19T09:47:42;27.00;;;6.18;;
28003;SDS011;15330;51.234;6.754;2023-11-19T09:50:10;24.52;;;5.03;;
28003;SDS011;15330;51.234;6.754;2023-11-19T09:52:39;36.20;;;5.65;;
28003;SDS011;15330;51.234;6.754;2023-11-19T09:55:04;34.60;;;6.65;;
28003;SDS011;15330;51.234;6.754;2023-11-19T09:57:30;31.55;;;5.88;;
28003;SDS011;15330;51.234;6.754;2023-11-19T09:59:57;25.30;;;5.45;;
28003;SDS011;15330;51.234;6.754;2023-11-19T10:02:23;35.25;;;6.63;;
28003;SDS011;15330;51.234;6.754;2023-11-19T10:04:49;28.90;;;5.30;;
28003;SDS011;15330;51.234;6.754;2023-11-19T10:07:15;25.75;;;5.13;;
28003;SDS011;15330;51.234;6.754;2023-11-19T10:09:40;30.83;;;6.70;;
28003;SDS011;15330;51.234;6.754;2023-11-19T10:12:05;30.65;;;6.00;;
28003;SDS011;15330;51.234;6.754;2023-11-19T10:14:31;34.30;;;5.78;;
28003;SDS011;15330;51.234;6.754;2023-11-19T10:16:57;29.65;;;5.63;;
28003;SDS011;15330;51.234;6.754;2023-11-19T10:19:23;31.80;;;6.78;;
28003;SDS011;15330;51.234;6.754;2023-11-19T10:21:49;28.90;;;6.13;;
28003;SDS011;15330;51.234;6.754;2023-11-19T10:24:14;32.92;;;5.95;;
28003;SDS011;15330;51.234;6.754;2023-11-19T10:26:40;34.85;;;6.47;;
28003;SDS011;15330;51.234;6.754;2023-11-19T10:29:07;27.25;;;5.70;;
28003;SDS011;15330;51.234;6.754;2023-11-19T10:31:32;29.42;;;5.75;;
28003;SDS011;15330;51.234;6.754;2023-11-19T10:33:57;32.00;;;5.07;;
28003;SDS011;15330;51.234;6.754;2023-11-19T10:36:23;26.00;;;5.18;;
28003;SDS011;15330;51.234;6.754;2023-11-19T10:39:02;31.17;;;5.75;;
28003;SDS011;15330;51.234;6.754;2023-11-19T10:41:28;25.42;;;5.20;;
28003;SDS011;15330;51.234;6.754;2023-11-19T10:43:54;26.00;;;5.60;;
28003;SDS011;15330;51.234;6.754;2023-11-19T10:46:19;27.23;;;5.22;;
28003;SDS011;15330;51.234;6.754;2023-11-19T10:48:48;17.35;;;4.47;;
28003;SDS011;15330;51.234;6.754;2023-11-19T10:51:13;29.42;;;5.68;;
28003;SDS011;15330;51.234;6.754;2023-11-19T10:53:48;24.25;;;4.50;;
28003;SDS011;15330;51.234;6.754;2023-11-19T10:56:15;28.65;;;4.97;;
28003;SDS011;15330;51.234;6.754;2023-11-19T10:58:44;35.13;;;5.40;;
28003;SDS011;15330;51.234;6.754;2023-11-19T11:01:13;32.72;;;5.75;;
28003;SDS011;15330;51.234;6.754;2023-11-19T11:03:46;25.38;;;5.05;;
28003;SDS011;15330;51.234;6.754;2023-11-19T11:06:11;18.80;;;4.05;;
28003;SDS011;15330;51.234;6.754;2023-11-19T11:08:38;27.40;;;4.97;;
28003;SDS011;15330;51.234;6.754;2023-11-19T11:11:04;27.42;;;5.05;;
28003;SDS011;15330;51.234;6.754;2023-11-19T11:13:31;19.88;;;4.80;;
28003;SDS011;15330;51.234;6.754;2023-11-19T11:15:57;27.48;;;5.28;;
28003;SDS011;15330;51.234;6.754;2023-11-19T11:18:25;20.83;;;4.75;;
28003;SDS011;15330;51.234;6.754;2023-11-19T11:20:56;21.00;;;4.90;;
28003;SDS011;15330;51.234;6.754;2023-11-19T11:36:22;20.20;;;4.15;;
28003;SDS011;15330;51.234;6.754;2023-11-19T11:38:48;20.38;;;4.55;;
28003;SDS011;15330;51.234;6.754;2023-11-19T11:41:15;23.85;;;4.47;;
28003;SDS011;15330;51.234;6.754;2023-11-19T11:43:45;24.70;;;5.05;;
28003;SDS011;15330;51.234;6.754;2023-11-19T11:49:04;21.42;;;3.55;;
28003;SDS011;15330;51.234;6.754;2023-11-19T11:54:09;26.13;;;4.75;;
28003;SDS011;15330;51.234;6.754;2023-11-19T11:56:47;24.60;;;5.20;;
28003;SDS011;15330;51.234;6.754;2023-11-19T12:02:07;24.10;;;4.43;;
28003;SDS011;15330;51.234;6.754;2023-11-19T12:04:34;15.07;;;3.15;;
28003;SDS011;15330;51.234;6.754;2023-11-19T12:07:03;24.77;;;4.13;;
28003;SDS011;15330;51.234;6.754;2023-11-19T12:09:32;20.58;;;4.13;;
28003;SDS011;15330;51.234;6.754;2023-11-19T12:12:11;24.13;;;4.65;;
28003;SDS011;15330;51.234;6.754;2023-11-19T12:15:01;25.88;;;4.22;;
28003;SDS011;15330;51.234;6.754;2023-11-19T12:20:07;18.95;;;4.80;;
28003;SDS011;15330;51.234;6.754;2023-11-19T12:22:40;21.38;;;3.55;;
28003;SDS011;15330;51.234;6.754;2023-11-19T12:25:07;23.50;;;4.78;;
28003;SDS011;15330;51.234;6.754;2023-11-19T12:27:34;23.95;;;4.55;;
28003;SDS011;15330;51.234;6.754;2023-11-19T12:30:03;26.92;;;4.07;;
28003;SDS011;15330;51.234;6.754;2023-11-19T12:32:38;20.67;;;4.05;;
28003;SDS011;15330;51.234;6.754;2023-11-19T12:35:07;22.20;;;4.50;;
28003;SDS011;15330;51.234;6.754;2023-11-19T12:37:42;19.50;;;4.40;;
28003;SDS011;15330;51.234;6.754;2023-11-19T12:40:15;25.85;;;4.20;;
28003;SDS011;15330;51.234;6.754;2023-11-19T12:45:07;23.23;;;4.37;;
28003;SDS011;15330;51.234;6.754;2023-11-19T12:47:36;22.73;;;4.20;;
28003;SDS011;15330;51.234;6.754;2023-11-19T12:50:02;18.85;;;3.33;;
28003;SDS011;15330;51.234;6.754;2023-11-19T12:52:29;19.50;;;4.53;;
28003;SDS011;15330;51.234;6.754;2023-11-19T12:54:55;20.52;;;3.53;;
28003;SDS011;15330;51.234;6.754;2023-11-19T12:57:20;23.77;;;4.30;;
28003;SDS011;15330;51.234;6.754;2023-11-19T12:59:55;19.77;;;4.45;;
28003;SDS011;15330;51.234;6.754;2023-11-19T13:02:23;23.88;;;4.55;;
28003;SDS011;15330;51.234;6.754;2023-11-19T13:07:47;20.25;;;4.80;;
28003;SDS011;15330;51.234;6.754;2023-11-19T13:10:12;20.15;;;4.15;;
28003;SDS011;15330;51.234;6.754;2023-11-19T13:12:38;18.92;;;4.28;;
28003;SDS011;15330;51.234;6.754;2023-11-19T13:15:04;21.05;;;5.10;;
28003;SDS011;15330;51.234;6.754;2023-11-19T13:17:29;25.83;;;4.50;;
28003;SDS011;15330;51.234;6.754;2023-11-19T13:19:55;19.25;;;3.42;;
28003;SDS011;15330;51.234;6.754;2023-11-19T13:22:22;23.88;;;4.20;;
28003;SDS011;15330;51.234;6.754;2023-11-19T13:24:47;27.45;;;4.30;;
28003;SDS011;15330;51.234;6.754;2023-11-19T13:27:13;20.33;;;3.55;;
28003;SDS011;15330;51.234;6.754;2023-11-19T13:29:38;21.42;;;4.15;;
28003;SDS011;15330;51.234;6.754;2023-11-19T13:32:04;24.13;;;3.97;;
28003;SDS011;15330;51.234;6.754;2023-11-19T13:34:30;22.08;;;3.70;;
28003;SDS011;15330;51.234;6.754;2023-11-19T13:36:56;23.92;;;4.90;;
28003;SDS011;15330;51.234;6.754;2023-11-19T13:39:21;23.92;;;3.85;;
28003;SDS011;15330;51.234;6.754;2023-11-19T13:41:49;28.35;;;5.30;;
28003;SDS011;15330;51.234;6.754;2023-11-19T13:44:15;26.60;;;4.80;;
28003;SDS011;15330;51.234;6.754;2023-11-19T13:46:41;19.98;;;4.15;;
28003;SDS011;15330;51.234;6.754;2023-11-19T13:49:09;23.38;;;4.28;;
28003;SDS011;15330;51.234;6.754;2023-11-19T13:51:35;27.10;;;5.13;;
28003;SDS011;15330;51.234;6.754;2023-11-19T13:54:00;24.88;;;4.55;;
28003;SDS011;15330;51.234;6.754;2023-11-19T13:56:26;28.75;;;4.80;;
28003;SDS011;15330;51.234;6.754;2023-11-19T13:58:51;23.73;;;4.15;;
28003;SDS011;15330;51.234;6.754;2023-11-19T14:01:18;20.35;;;4.15;;
28003;SDS011;15330;51.234;6.754;2023-11-19T14:03:43;25.00;;;3.88;;
28003;SDS011;15330;51.234;6.754;2023-11-19T14:06:09;23.98;;;4.82;;
28003;SDS011;15330;51.234;6.754;2023-11-19T14:08:34;25.55;;;4.78;;
28003;SDS011;15330;51.234;6.754;2023-11-19T14:10:59;20.75;;;4.40;;
28003;SDS011;15330;51.234;6.754;2023-11-19T14:13:25;25.17;;;4.03;;
28003;SDS011;15330;51.234;6.754;2023-11-19T14:15:50;25.55;;;4.63;;
28003;SDS011;15330;51.234;6.754;2023-11-19T14:18:16;25.35;;;4.85;;
28003;SDS011;15330;51.234;6.754;2023-11-19T14:20:42;23.65;;;4.30;;
28003;SDS011;15330;51.234;6.754;2023-11-19T14:23:07;23.50;;;4.22;;
28003;SDS011;15330;51.234;6.754;2023-11-19T14:25:34;19.20;;;4.07;;
28003;SDS011;15330;51.234;6.754;2023-11-19T14:27:59;21.88;;;4.25;;
28003;SDS011;15330;51.234;6.754;2023-11-19T14:30:24;14.90;;;3.42;;
28003;SDS011;15330;51.234;6.754;2023-11-19T14:32:50;25.02;;;4.53;;
28003;SDS011;15330;51.234;6.754;2023-11-19T14:35:15;23.10;;;4.10;;
28003;SDS011;15330;51.234;6.754;2023-11-19T14:37:40;27.70;;;4.90;;
28003;SDS011;15330;51.234;6.754;2023-11-19T14:40:06;26.33;;;4.57;;
28003;SDS011;15330;51.234;6.754;2023-11-19T14:42:34;27.40;;;5.80;;
28003;SDS011;15330;51.234;6.754;2023-11-19T14:45:00;25.83;;;4.70;;
28003;SDS011;15330;51.234;6.754;2023-11-19T14:47:25;21.70;;;4.40;;
28003;SDS011;15330;51.234;6.754;2023-11-19T14:49:51;23.75;;;4.53;;
28003;SDS011;15330;51.234;6.754;2023-11-19T14:52:16;30.92;;;4.72;;
28003;SDS011;15330;51.234;6.754;2023-11-19T14:54:42;36.40;;;5.80;;
28003;SDS011;15330;51.234;6.754;2023-11-19T14:57:07;27.52;;;4.80;;
28003;SDS011;15330;51.234;6.754;2023-11-19T14:59:36;37.08;;;5.57;;
28003;SDS011;15330;51.234;6.754;2023-11-19T15:02:04;29.70;;;5.15;;